createdAt,value
2023-12-15T00:00:26.778Z,8.59
2023-12-15T00:02:53.303Z,8.59
2023-12-15T00:05:19.962Z,8.51
2023-12-15T00:07:46.517Z,8.53
2023-12-15T00:10:13.440Z,8.56
2023-12-15T00:12:39.996Z,8.50
2023-12-15T00:15:07.072Z,8.55
2023-12-15T00:17:33.923Z,8.60
2023-12-15T00:20:00.814Z,8.54
2023-12-15T00:22:27.342Z,8.54
2023-12-15T00:24:53.838Z,8.52
2023-12-15T00:27:20.304Z,8.59
2023-12-15T00:29:46.976Z,8.57
2023-12-15T00:32:13.497Z,8.54
2023-12-15T00:34:40.040Z,8.52
2023-12-15T00:37:06.574Z,8.53
2023-12-15T00:39:37.138Z,8.55
2023-12-15T00:42:05.599Z,8.46
2023-12-15T00:44:34.011Z,8.36
2023-12-15T00:47:01.625Z,8.39
2023-12-15T00:49:28.427Z,8.45
2023-12-15T00:51:55.683Z,8.31
2023-12-15T00:54:22.290Z,8.30
2023-12-15T00:56:49.195Z,8.25
2023-12-15T00:59:15.941Z,8.19
2023-12-15T01:01:42.555Z,8.22
2023-12-15T01:04:09.452Z,8.27
2023-12-15T01:06:36.020Z,8.22
2023-12-15T01:09:02.600Z,8.21
2023-12-15T01:11:29.243Z,8.22
2023-12-15T01:13:55.780Z,8.10
2023-12-15T01:16:22.333Z,8.12
2023-12-15T01:18:48.907Z,8.10
2023-12-15T01:21:15.427Z,8.12
2023-12-15T01:23:41.952Z,8.04
2023-12-15T01:26:08.725Z,8.12
2023-12-15T01:28:35.263Z,8.17
2023-12-15T01:31:02.843Z,8.15
2023-12-15T01:33:30.396Z,8.15
2023-12-15T01:35:57.710Z,8.04
2023-12-15T01:38:24.301Z,8.07
2023-12-15T01:40:51.084Z,8.11
2023-12-15T01:43:17.660Z,8.19
2023-12-15T01:45:44.285Z,8.18
2023-12-15T01:48:12.032Z,8.22
2023-12-15T01:50:39.916Z,8.23
2023-12-15T01:53:06.623Z,8.11
2023-12-15T01:55:33.217Z,8.16
2023-12-15T01:57:59.805Z,8.22
2023-12-15T02:00:26.373Z,8.22
2023-12-15T02:02:52.942Z,8.26
2023-12-15T02:05:19.553Z,8.24
2023-12-15T02:07:46.565Z,8.27
2023-12-15T02:10:13.199Z,8.27
2023-12-15T02:12:39.737Z,8.24
2023-12-15T02:15:09.684Z,8.26
2023-12-15T02:17:36.708Z,8.28
2023-12-15T02:20:03.693Z,8.35
2023-12-15T02:22:30.307Z,8.29
2023-12-15T02:24:56.825Z,8.20
2023-12-15T02:27:23.307Z,8.23
2023-12-15T02:29:49.819Z,8.14
2023-12-15T02:32:16.353Z,8.23
2023-12-15T02:34:43.060Z,8.27
2023-12-15T02:37:09.637Z,8.35
2023-12-15T02:39:39.709Z,8.34
2023-12-15T02:42:06.635Z,8.39
2023-12-15T02:44:34.157Z,8.43
2023-12-15T02:47:00.751Z,8.40
2023-12-15T02:51:53.749Z,8.33
2023-12-15T02:54:20.241Z,8.36
2023-12-15T02:56:46.842Z,8.38
2023-12-15T02:59:13.328Z,8.22
2023-12-15T03:01:39.820Z,8.28
2023-12-15T03:04:06.328Z,8.23
2023-12-15T03:06:32.871Z,8.10
2023-12-15T03:08:59.341Z,7.99
2023-12-15T03:11:25.909Z,8.00
2023-12-15T03:13:52.484Z,7.88
2023-12-15T03:16:19.034Z,7.81
2023-12-15T03:18:45.530Z,7.77
2023-12-15T03:21:12.106Z,7.68
2023-12-15T03:23:38.599Z,7.66
2023-12-15T03:26:05.455Z,7.53
2023-12-15T03:28:32.390Z,7.49
2023-12-15T03:30:58.956Z,7.58
2023-12-15T03:33:28.632Z,7.67
2023-12-15T03:35:55.181Z,7.56
2023-12-15T03:38:21.886Z,7.50
2023-12-15T03:40:48.437Z,7.53
2023-12-15T03:43:14.977Z,7.47
2023-12-15T03:45:41.495Z,7.34
2023-12-15T03:48:08.115Z,7.30
2023-12-15T03:50:34.931Z,7.30
2023-12-15T03:53:01.586Z,7.10
2023-12-15T03:55:28.130Z,7.14
2023-12-15T03:57:54.710Z,6.95
2023-12-15T04:00:21.726Z,6.96
2023-12-15T04:02:48.726Z,7.01
2023-12-15T04:05:15.807Z,6.88
2023-12-15T04:07:42.783Z,6.87
2023-12-15T04:10:10.354Z,6.81
2023-12-15T04:12:36.946Z,6.74
2023-12-15T04:15:03.958Z,6.68
2023-12-15T04:17:30.686Z,6.64
2023-12-15T04:19:57.619Z,6.50
2023-12-15T04:22:24.253Z,6.54
2023-12-15T04:24:51.076Z,6.55
2023-12-15T04:27:17.733Z,6.53
2023-12-15T04:29:44.351Z,6.58
2023-12-15T04:32:10.850Z,6.56
2023-12-15T04:34:38.778Z,6.59
2023-12-15T04:37:05.416Z,6.58
2023-12-15T04:39:32.035Z,6.48
2023-12-15T04:41:58.587Z,6.61
2023-12-15T04:44:25.142Z,6.60
2023-12-15T04:46:56.782Z,6.59
2023-12-15T04:49:24.094Z,6.70
2023-12-15T04:51:50.686Z,6.65
2023-12-15T04:54:17.211Z,6.71
2023-12-15T04:56:45.180Z,6.75
2023-12-15T04:59:12.091Z,6.67
2023-12-15T05:01:38.634Z,6.65
2023-12-15T05:04:05.129Z,6.60
2023-12-15T05:06:32.491Z,6.59
2023-12-15T05:08:59.161Z,6.47
2023-12-15T05:11:27.363Z,6.48
2023-12-15T05:13:53.956Z,6.34
2023-12-15T05:16:20.569Z,6.42
2023-12-15T05:18:47.176Z,6.43
2023-12-15T05:21:13.798Z,6.40
2023-12-15T05:23:40.998Z,6.45
2023-12-15T05:26:07.561Z,6.51
2023-12-15T05:28:34.095Z,6.46
2023-12-15T05:31:00.607Z,6.58
2023-12-15T05:33:27.390Z,6.63
2023-12-15T05:35:53.970Z,6.65
2023-12-15T05:38:20.496Z,6.75
2023-12-15T05:40:47.410Z,6.77
2023-12-15T05:43:13.943Z,6.70
2023-12-15T05:45:40.491Z,6.88
2023-12-15T05:48:07.156Z,6.98
2023-12-15T05:50:36.713Z,7.06
2023-12-15T05:53:03.791Z,7.22
2023-12-15T05:55:30.416Z,7.30
2023-12-15T05:57:56.865Z,7.36
2023-12-15T06:00:23.352Z,7.44
2023-12-15T06:02:49.899Z,7.43
2023-12-15T06:05:16.593Z,7.42
2023-12-15T06:07:43.184Z,7.46
2023-12-15T06:10:09.869Z,7.26
2023-12-15T06:12:36.383Z,7.17
2023-12-15T06:15:02.898Z,7.13
2023-12-15T06:17:29.601Z,7.02
2023-12-15T06:19:56.212Z,7.03
2023-12-15T06:22:22.765Z,7.15
2023-12-15T06:24:49.293Z,7.08
2023-12-15T06:27:15.781Z,7.15
2023-12-15T06:29:42.550Z,7.15
2023-12-15T06:32:11.795Z,7.22
2023-12-15T06:34:42.413Z,7.23
2023-12-15T06:37:09.141Z,7.27
2023-12-15T06:39:35.744Z,7.18
2023-12-15T06:42:04.174Z,7.04
2023-12-15T06:44:31.350Z,7.08
2023-12-15T06:46:58.283Z,6.89
2023-12-15T06:49:31.639Z,6.92
2023-12-15T06:51:59.660Z,6.96
2023-12-15T06:54:26.646Z,6.94
2023-12-15T06:56:53.319Z,7.02
2023-12-15T06:59:19.910Z,6.90
2023-12-15T07:01:46.408Z,6.71
2023-12-15T07:04:13.168Z,6.66
2023-12-15T07:06:39.880Z,6.54
2023-12-15T07:09:06.531Z,6.67
2023-12-15T07:11:33.201Z,6.55
2023-12-15T07:13:59.729Z,6.63
2023-12-15T07:16:26.268Z,6.62
2023-12-15T07:18:52.796Z,6.56
2023-12-15T07:21:19.399Z,6.56
2023-12-15T07:23:46.114Z,6.55
2023-12-15T07:26:12.784Z,6.61
2023-12-15T07:28:39.294Z,6.68
2023-12-15T07:31:08.332Z,6.60
2023-12-15T07:33:36.321Z,6.71
2023-12-15T07:36:03.102Z,6.73
2023-12-15T07:38:29.741Z,6.84
2023-12-15T07:40:56.319Z,6.81
2023-12-15T07:43:22.897Z,6.78
2023-12-15T07:45:49.510Z,6.75
2023-12-15T07:48:16.260Z,6.96
2023-12-15T07:50:43.057Z,7.10
2023-12-15T07:53:10.098Z,7.24
2023-12-15T07:55:36.665Z,7.22
2023-12-15T07:58:03.185Z,7.31
2023-12-15T08:00:29.806Z,7.42
2023-12-15T08:02:56.512Z,7.40
2023-12-15T08:05:23.532Z,7.52
2023-12-15T08:07:50.177Z,7.37
2023-12-15T08:10:16.713Z,7.33
2023-12-15T08:12:43.221Z,7.42
2023-12-15T08:15:09.917Z,7.35
2023-12-15T08:17:36.751Z,7.21
2023-12-15T08:20:04.025Z,6.97
2023-12-15T08:22:30.577Z,6.86
2023-12-15T08:24:57.352Z,6.63
2023-12-15T08:27:24.066Z,6.67
2023-12-15T08:29:51.541Z,6.57
2023-12-15T08:32:18.176Z,6.55
2023-12-15T08:34:44.722Z,6.46
2023-12-15T08:37:11.205Z,6.39
2023-12-15T08:39:37.756Z,6.47
2023-12-15T08:42:04.633Z,6.56
2023-12-15T08:44:34.609Z,6.63
2023-12-15T08:47:02.320Z,6.56
2023-12-15T08:49:29.539Z,6.49
2023-12-15T08:51:56.303Z,6.31
2023-12-15T08:54:22.873Z,6.41
2023-12-15T08:56:49.643Z,6.48
2023-12-15T08:59:16.316Z,6.48
2023-12-15T09:01:42.897Z,6.40
2023-12-15T09:04:10.157Z,6.49
2023-12-15T09:06:40.372Z,6.62
2023-12-15T09:09:12.634Z,6.75
2023-12-15T09:11:40.055Z,6.82
2023-12-15T09:14:06.887Z,6.80
2023-12-15T09:16:33.586Z,6.61
2023-12-15T09:19:00.331Z,6.83
2023-12-15T09:21:27.264Z,6.82
2023-12-15T09:23:57.887Z,6.72
2023-12-15T09:26:24.860Z,6.78
2023-12-15T09:28:51.470Z,6.91
2023-12-15T09:31:18.025Z,6.91
2023-12-15T09:33:44.664Z,6.95
2023-12-15T09:36:11.944Z,6.94
2023-12-15T09:38:38.753Z,6.90
2023-12-15T09:41:05.726Z,6.86
2023-12-15T09:43:32.347Z,6.82
2023-12-15T09:45:59.831Z,6.92
2023-12-15T09:48:29.662Z,6.83
2023-12-15T09:50:57.455Z,6.93
2023-12-15T09:53:25.572Z,6.86
2023-12-15T09:55:52.900Z,6.71
2023-12-15T09:58:19.538Z,6.76
2023-12-15T10:00:46.499Z,7.01
2023-12-15T10:03:16.034Z,7.01
2023-12-15T10:05:43.241Z,6.96
2023-12-15T10:08:10.053Z,7.01
2023-12-15T10:10:36.693Z,7.11
2023-12-15T10:13:03.348Z,7.08
2023-12-15T10:15:30.679Z,7.15
2023-12-15T10:17:58.988Z,7.21
2023-12-15T10:20:26.327Z,7.25
2023-12-15T10:23:07.913Z,7.19
2023-12-15T10:25:34.739Z,7.21
2023-12-15T10:28:03.233Z,7.38
2023-12-15T10:30:30.181Z,7.52
2023-12-15T10:33:01.123Z,7.53
2023-12-15T10:35:30.044Z,7.63
2023-12-15T10:37:56.970Z,7.59
2023-12-15T10:40:23.886Z,7.68
2023-12-15T10:42:52.376Z,7.78
2023-12-15T10:45:20.550Z,7.88
2023-12-15T10:47:49.972Z,7.88
2023-12-15T10:50:17.090Z,7.89
2023-12-15T10:52:45.713Z,7.87
2023-12-15T10:55:14.907Z,7.89
2023-12-15T10:57:42.399Z,7.89
2023-12-15T11:00:11.269Z,7.84
2023-12-15T11:02:40.588Z,7.90
2023-12-15T11:05:10.863Z,7.92
2023-12-15T11:07:38.202Z,7.85
2023-12-15T11:10:05.352Z,7.98
2023-12-15T11:12:32.932Z,8.01
2023-12-15T11:15:08.233Z,8.07
2023-12-15T11:17:39.925Z,8.13
2023-12-15T11:20:11.114Z,8.14
2023-12-15T11:22:42.169Z,8.11
2023-12-15T11:25:16.899Z,8.00
2023-12-15T11:28:09.555Z,7.92
2023-12-15T11:30:42.006Z,7.74
2023-12-15T11:33:42.191Z,7.58
2023-12-15T11:36:11.255Z,7.59
2023-12-15T11:38:39.012Z,7.65
2023-12-15T11:41:07.110Z,7.63
2023-12-15T11:43:37.419Z,7.68
2023-12-15T11:46:05.371Z,7.76
2023-12-15T11:48:34.110Z,7.80
2023-12-15T11:51:00.930Z,7.84
2023-12-15T11:53:28.488Z,7.82
2023-12-15T11:55:56.341Z,7.87
2023-12-15T11:58:23.397Z,7.78
2023-12-15T12:00:50.120Z,7.92
2023-12-15T12:03:17.314Z,7.76
2023-12-15T12:05:49.231Z,7.92
2023-12-15T12:08:16.154Z,7.79
2023-12-15T12:10:43.597Z,7.66
2023-12-15T12:13:12.376Z,7.73
2023-12-15T12:15:55.366Z,7.90
2023-12-15T12:18:22.865Z,7.95
2023-12-15T12:20:49.617Z,7.87
2023-12-15T12:23:22.105Z,7.77
2023-12-15T12:25:55.477Z,7.59
2023-12-15T12:28:22.591Z,7.51
2023-12-15T12:30:49.411Z,7.46
2023-12-15T12:33:17.783Z,7.52
2023-12-15T12:35:44.994Z,7.49
2023-12-15T12:38:11.870Z,7.56
2023-12-15T12:40:38.582Z,7.61
2023-12-15T12:43:05.162Z,7.58
2023-12-15T12:45:32.374Z,7.61
2023-12-15T12:47:58.981Z,7.71
2023-12-15T12:50:25.725Z,7.65
2023-12-15T12:52:54.612Z,7.48
2023-12-15T12:55:22.468Z,7.52
2023-12-15T12:57:49.413Z,7.63
2023-12-15T13:00:17.353Z,7.74
2023-12-15T13:02:44.557Z,7.74
2023-12-15T13:05:11.729Z,7.66
2023-12-15T13:07:38.577Z,7.61
2023-12-15T13:10:17.574Z,7.61
2023-12-15T13:12:46.286Z,7.71
2023-12-15T13:15:13.480Z,7.68
2023-12-15T13:17:41.013Z,7.56
2023-12-15T13:20:10.571Z,7.42
2023-12-15T13:22:45.655Z,7.39
2023-12-15T13:25:15.685Z,7.44
2023-12-15T13:27:42.779Z,7.32
2023-12-15T13:30:11.464Z,7.17
2023-12-15T13:32:39.949Z,7.20
2023-12-15T13:35:10.954Z,7.23
2023-12-15T13:37:37.717Z,7.15
2023-12-15T13:40:05.371Z,7.08
2023-12-15T13:42:32.078Z,7.13
2023-12-15T13:44:58.793Z,6.93
2023-12-15T13:47:25.907Z,7.03
2023-12-15T13:49:52.697Z,7.04
2023-12-15T13:52:20.082Z,7.00
2023-12-15T13:54:46.814Z,6.87
2023-12-15T13:57:13.419Z,6.98
2023-12-15T13:59:40.046Z,6.96
2023-12-15T14:02:06.921Z,6.94
2023-12-15T14:04:33.453Z,6.83
2023-12-15T14:07:01.352Z,6.89
2023-12-15T14:09:29.153Z,6.80
2023-12-15T14:11:57.345Z,6.86
2023-12-15T14:14:24.393Z,6.75
2023-12-15T14:16:51.065Z,6.71
2023-12-15T14:19:19.133Z,6.75
2023-12-15T14:21:47.064Z,6.72
2023-12-15T14:24:18.075Z,6.88
2023-12-15T14:26:45.336Z,6.76
2023-12-15T14:29:12.284Z,6.65
2023-12-15T14:31:39.525Z,6.66
2023-12-15T14:34:06.512Z,6.47
2023-12-15T14:36:33.413Z,6.51
2023-12-15T14:38:59.994Z,6.57
2023-12-15T14:41:27.965Z,6.52
2023-12-15T14:43:54.545Z,6.49
2023-12-15T14:46:21.236Z,6.63
2023-12-15T14:48:48.906Z,6.61
2023-12-15T14:51:15.849Z,6.51
2023-12-15T14:53:42.393Z,6.49
2023-12-15T14:56:12.092Z,6.46
2023-12-15T14:58:40.537Z,6.47
2023-12-15T15:01:07.575Z,6.43
2023-12-15T15:03:34.953Z,6.35
2023-12-15T15:06:02.184Z,6.33
2023-12-15T15:08:29.035Z,6.35
2023-12-15T15:10:55.648Z,6.45
2023-12-15T15:13:23.595Z,6.52
2023-12-15T15:15:50.702Z,6.55
2023-12-15T15:18:17.511Z,6.54
2023-12-15T15:20:44.508Z,6.53
2023-12-15T15:23:11.197Z,6.50
2023-12-15T15:25:38.482Z,6.48
2023-12-15T15:28:05.048Z,6.46
2023-12-15T15:30:31.583Z,6.55
2023-12-15T15:32:58.292Z,6.49
2023-12-15T15:35:25.926Z,6.31
2023-12-15T15:37:53.988Z,6.27
2023-12-15T15:40:20.553Z,6.26
2023-12-15T15:42:47.568Z,6.26
2023-12-15T15:45:14.190Z,6.13
2023-12-15T15:47:41.469Z,6.05
2023-12-15T15:50:08.719Z,6.04
2023-12-15T15:52:35.217Z,5.92
2023-12-15T15:55:01.863Z,5.90
2023-12-15T15:57:31.344Z,5.86
2023-12-15T15:59:57.896Z,5.63
2023-12-15T16:02:24.670Z,5.64
2023-12-15T16:04:51.505Z,5.58
2023-12-15T16:07:18.242Z,5.39
2023-12-15T16:09:47.332Z,5.52
2023-12-15T16:12:14.328Z,5.60
2023-12-15T16:14:40.988Z,5.45
2023-12-15T16:17:07.473Z,5.53
2023-12-15T16:19:34.100Z,5.53
2023-12-15T16:22:01.307Z,5.59
2023-12-15T16:24:28.198Z,5.66
2023-12-15T16:26:54.779Z,5.77
2023-12-15T16:29:21.280Z,5.85
2023-12-15T16:31:47.842Z,5.96
2023-12-15T16:34:15.217Z,6.08
2023-12-15T16:36:41.889Z,6.11
2023-12-15T16:39:14.569Z,6.21
2023-12-15T16:41:41.709Z,6.28
2023-12-15T16:44:08.190Z,6.33
2023-12-15T16:46:34.666Z,6.32
2023-12-15T16:49:01.931Z,6.35
2023-12-15T16:51:37.060Z,6.34
2023-12-15T16:54:04.343Z,6.36
2023-12-15T16:56:31.074Z,6.34
2023-12-15T16:58:57.622Z,6.27
2023-12-15T17:01:24.180Z,6.25
2023-12-15T17:03:50.805Z,6.23
2023-12-15T17:06:17.512Z,6.21
2023-12-15T17:08:45.031Z,6.23
2023-12-15T17:11:13.238Z,6.24
2023-12-15T17:13:40.203Z,6.20
2023-12-15T17:16:07.171Z,6.14
2023-12-15T17:18:33.846Z,5.98
2023-12-15T17:21:00.686Z,6.00
2023-12-15T17:23:27.748Z,6.04
2023-12-15T17:25:54.345Z,6.08
2023-12-15T17:28:21.078Z,6.07
2023-12-15T17:30:47.761Z,5.97
2023-12-15T17:33:16.074Z,5.99
2023-12-15T17:35:42.642Z,5.95
2023-12-15T17:38:09.175Z,5.90
2023-12-15T17:40:35.691Z,5.88
2023-12-15T17:43:02.168Z,5.83
2023-12-15T17:45:28.709Z,5.92
2023-12-15T17:47:55.293Z,5.90
2023-12-15T17:50:22.320Z,5.95
2023-12-15T17:52:48.930Z,5.91
2023-12-15T17:55:15.678Z,5.85
2023-12-15T17:57:43.168Z,5.94
2023-12-15T18:00:11.003Z,5.82
2023-12-15T18:02:37.766Z,5.57
2023-12-15T18:05:04.855Z,5.57
2023-12-15T18:07:31.386Z,5.68
2023-12-15T18:09:57.911Z,5.62
2023-12-15T18:12:24.523Z,5.55
2023-12-15T18:14:51.025Z,5.56
2023-12-15T18:17:17.503Z,5.46
2023-12-15T18:19:44.069Z,5.45
2023-12-15T18:22:11.017Z,5.47
2023-12-15T18:24:43.361Z,5.43
2023-12-15T18:27:09.902Z,5.46
2023-12-15T18:29:36.470Z,5.37
2023-12-15T18:32:03.647Z,5.36
2023-12-15T18:34:30.513Z,5.32
2023-12-15T18:37:01.268Z,5.17
2023-12-15T18:39:27.883Z,5.30
2023-12-15T18:41:54.372Z,5.37
2023-12-15T18:44:20.908Z,5.29
2023-12-15T18:46:47.637Z,5.32
2023-12-15T18:49:15.364Z,5.37
2023-12-15T18:51:42.544Z,5.41
2023-12-15T18:54:13.717Z,5.40
2023-12-15T18:56:41.278Z,5.35
2023-12-15T18:59:08.060Z,5.39
2023-12-15T19:01:35.442Z,5.38
2023-12-15T19:04:02.268Z,5.45
2023-12-15T19:06:28.915Z,5.44
2023-12-15T19:08:55.519Z,5.43
2023-12-15T19:11:30.897Z,5.43
2023-12-15T19:13:57.967Z,5.36
2023-12-15T19:16:24.997Z,5.35
2023-12-15T19:18:52.049Z,5.33
2023-12-15T19:21:19.454Z,5.30
2023-12-15T19:23:46.973Z,5.16
2023-12-15T19:26:13.542Z,5.10
2023-12-15T19:28:41.124Z,5.11
2023-12-15T19:31:07.977Z,5.13
2023-12-15T19:33:34.775Z,5.14
2023-12-15T19:36:01.442Z,5.10
2023-12-15T19:38:28.187Z,5.06
2023-12-15T19:40:54.679Z,5.04
2023-12-15T19:43:21.725Z,5.00
2023-12-15T19:45:48.700Z,4.87
2023-12-15T19:48:15.448Z,4.82
2023-12-15T19:50:42.003Z,4.76
2023-12-15T19:53:08.539Z,4.78
2023-12-15T19:55:37.500Z,4.78
2023-12-15T19:58:07.355Z,4.74
2023-12-15T20:00:36.757Z,4.78
2023-12-15T20:03:03.473Z,4.73
2023-12-15T20:05:30.201Z,4.76
2023-12-15T20:07:57.258Z,4.70
2023-12-15T20:10:23.805Z,4.73
2023-12-15T20:12:50.444Z,4.70
2023-12-15T20:15:17.934Z,4.59
2023-12-15T20:17:45.561Z,4.68
2023-12-15T20:20:13.216Z,4.70
2023-12-15T20:22:39.829Z,4.71
2023-12-15T20:25:07.975Z,4.71
2023-12-15T20:27:42.321Z,4.61
2023-12-15T20:30:11.917Z,4.71
2023-12-15T20:32:38.731Z,4.62
2023-12-15T20:35:09.526Z,4.71
2023-12-15T20:37:36.405Z,4.68
2023-12-15T20:40:03.686Z,4.69
2023-12-15T20:42:30.522Z,4.70
2023-12-15T20:44:56.990Z,4.63
2023-12-15T20:47:24.106Z,4.63
2023-12-15T20:49:50.709Z,4.57
2023-12-15T20:52:18.043Z,4.50
2023-12-15T20:54:44.702Z,4.52
2023-12-15T20:57:11.261Z,4.49
2023-12-15T20:59:42.041Z,4.32
2023-12-15T21:02:08.594Z,4.33
2023-12-15T21:04:36.817Z,4.43
2023-12-15T21:07:05.053Z,4.40
2023-12-15T21:09:31.936Z,4.39
2023-12-15T21:11:58.579Z,4.40
2023-12-15T21:14:25.212Z,4.50
2023-12-15T21:16:52.787Z,4.54
2023-12-15T21:19:19.425Z,4.53
2023-12-15T21:21:46.555Z,4.61
2023-12-15T21:24:13.351Z,4.67
2023-12-15T21:26:39.874Z,4.65
2023-12-15T21:29:07.117Z,4.77
2023-12-15T21:31:33.806Z,4.83
2023-12-15T21:34:00.558Z,4.88
2023-12-15T21:36:27.199Z,4.91
2023-12-15T21:38:53.733Z,4.99
2023-12-15T21:41:20.280Z,4.95
2023-12-15T21:43:46.948Z,4.97
2023-12-15T21:46:15.918Z,5.04
2023-12-15T21:48:43.150Z,5.11
2023-12-15T21:51:09.713Z,5.13
2023-12-15T21:53:36.250Z,5.17
2023-12-15T21:56:06.137Z,5.17
2023-12-15T21:58:32.633Z,5.13
2023-12-15T22:01:00.472Z,5.14
2023-12-15T22:03:27.125Z,5.17
2023-12-15T22:05:53.725Z,5.16
2023-12-15T22:08:20.243Z,5.16
2023-12-15T22:10:46.732Z,5.20
2023-12-15T22:13:13.326Z,5.22
2023-12-15T22:15:39.947Z,5.11
2023-12-15T22:18:06.523Z,4.89
2023-12-15T22:20:33.076Z,4.80
2023-12-15T22:23:00.037Z,4.86
2023-12-15T22:25:26.736Z,4.77
2023-12-15T22:27:53.359Z,4.78
2023-12-15T22:30:25.249Z,4.59
2023-12-15T22:32:52.794Z,4.55
2023-12-15T22:35:19.482Z,4.50
2023-12-15T22:37:46.008Z,4.57
2023-12-15T22:40:12.716Z,4.45
2023-12-15T22:42:39.261Z,4.43
2023-12-15T22:45:06.609Z,4.39
2023-12-15T22:47:34.412Z,4.36
2023-12-15T22:50:01.655Z,4.30
2023-12-15T22:52:28.481Z,4.36
2023-12-15T22:54:55.137Z,4.50
2023-12-15T22:57:21.745Z,4.47
2023-12-15T22:59:48.264Z,4.57
2023-12-15T23:02:14.724Z,4.54
2023-12-15T23:04:41.534Z,4.64
2023-12-15T23:07:09.248Z,4.68
2023-12-15T23:09:35.987Z,4.63
2023-12-15T23:12:03.452Z,4.64
2023-12-15T23:14:30.024Z,4.59
2023-12-15T23:16:56.512Z,4.62
2023-12-15T23:19:23.178Z,4.65
2023-12-15T23:21:49.798Z,4.57
2023-12-15T23:24:16.345Z,4.59
2023-12-15T23:26:42.938Z,4.57
2023-12-15T23:29:10.539Z,4.57
2023-12-15T23:31:37.210Z,4.53
2023-12-15T23:34:03.945Z,4.53
2023-12-15T23:36:31.285Z,4.61
2023-12-15T23:38:59.065Z,4.57
2023-12-15T23:41:25.580Z,4.55
2023-12-15T23:43:52.067Z,4.46
2023-12-15T23:46:18.585Z,4.49
2023-12-15T23:48:45.235Z,4.46
2023-12-15T23:51:11.868Z,4.55
2023-12-15T23:53:38.373Z,4.33
2023-12-15T23:56:05.761Z,4.29
2023-12-15T23:58:34.130Z,4.34
